sensor_id;sensor_type;location;lat;lon;timestamp;P1;durP1;ratioP1;P2;durP2;ratioP2
6785;SDS011;3430;51.192;6.048;2023-04-09T00:02:22;11.93;;;9.13;;
6785;SDS011;3430;51.192;6.048;2023-04-09T00:04:47;11.83;;;9.63;;
6785;SDS011;3430;51.192;6.048;2023-04-09T00:07:12;12.40;;;9.07;;
6785;SDS011;3430;51.192;6.048;2023-04-09T00:09:38;11.97;;;9.50;;
6785;SDS011;3430;51.192;6.048;2023-04-09T00:12:03;11.30;;;8.50;;
6785;SDS011;3430;51.192;6.048;2023-04-09T00:14:28;12.67;;;9.40;;
6785;SDS011;3430;51.192;6.048;2023-04-09T00:16:54;13.13;;;9.87;;
6785;SDS011;3430;51.192;6.048;2023-04-09T00:19:19;12.63;;;9.53;;
6785;SDS011;3430;51.192;6.048;2023-04-09T00:21:44;12.23;;;9.30;;
6785;SDS011;3430;51.192;6.048;2023-04-09T00:24:10;12.37;;;9.40;;
6785;SDS011;3430;51.192;6.048;2023-04-09T00:26:35;12.90;;;9.90;;
6785;SDS011;3430;51.192;6.048;2023-04-09T00:29:00;11.53;;;8.73;;
6785;SDS011;3430;51.192;6.048;2023-04-09T00:31:25;12.20;;;9.53;;
6785;SDS011;3430;51.192;6.048;2023-04-09T00:33:51;13.87;;;9.33;;
6785;SDS011;3430;51.192;6.048;2023-04-09T00:36:16;11.73;;;8.87;;
6785;SDS011;3430;51.192;6.048;2023-04-09T00:38:41;11.67;;;9.03;;
6785;SDS011;3430;51.192;6.048;2023-04-09T00:41:07;11.77;;;9.30;;
6785;SDS011;3430;51.192;6.048;2023-04-09T00:43:32;11.60;;;9.90;;
6785;SDS011;3430;51.192;6.048;2023-04-09T00:45:57;12.60;;;9.20;;
6785;SDS011;3430;51.192;6.048;2023-04-09T00:48:23;11.10;;;8.73;;
6785;SDS011;3430;51.192;6.048;2023-04-09T00:50:49;12.13;;;10.03;;
6785;SDS011;3430;51.192;6.048;2023-04-09T00:53:14;12.20;;;8.77;;
6785;SDS011;3430;51.192;6.048;2023-04-09T00:55:40;12.33;;;8.83;;
6785;SDS011;3430;51.192;6.048;2023-04-09T00:58:05;12.20;;;9.13;;
6785;SDS011;3430;51.192;6.048;2023-04-09T01:00:31;12.60;;;10.07;;
6785;SDS011;3430;51.192;6.048;2023-04-09T01:02:56;11.00;;;9.53;;
6785;SDS011;3430;51.192;6.048;2023-04-09T01:05:23;10.57;;;9.03;;
6785;SDS011;3430;51.192;6.048;2023-04-09T01:15:14;16.03;;;9.37;;
6785;SDS011;3430;51.192;6.048;2023-04-09T01:20:34;12.37;;;8.60;;
6785;SDS011;3430;51.192;6.048;2023-04-09T01:23:03;11.93;;;9.83;;
6785;SDS011;3430;51.192;6.048;2023-04-09T01:30:29;13.23;;;9.77;;
6785;SDS011;3430;51.192;6.048;2023-04-09T01:32:55;11.93;;;9.57;;
6785;SDS011;3430;51.192;6.048;2023-04-09T01:35:21;10.87;;;9.00;;
6785;SDS011;3430;51.192;6.048;2023-04-09T01:37:46;14.00;;;9.80;;
6785;SDS011;3430;51.192;6.048;2023-04-09T01:40:12;15.43;;;8.97;;
6785;SDS011;3430;51.192;6.048;2023-04-09T01:42:37;13.13;;;9.40;;
6785;SDS011;3430;51.192;6.048;2023-04-09T01:45:03;12.40;;;9.33;;
6785;SDS011;3430;51.192;6.048;2023-04-09T01:47:29;12.20;;;9.67;;
6785;SDS011;3430;51.192;6.048;2023-04-09T01:49:55;12.27;;;9.03;;
6785;SDS011;3430;51.192;6.048;2023-04-09T01:52:20;10.40;;;8.40;;
6785;SDS011;3430;51.192;6.048;2023-04-09T01:54:45;11.53;;;9.03;;
6785;SDS011;3430;51.192;6.048;2023-04-09T01:57:11;14.47;;;9.63;;
6785;SDS011;3430;51.192;6.048;2023-04-09T01:59:36;12.80;;;9.83;;
6785;SDS011;3430;51.192;6.048;2023-04-09T02:02:05;11.13;;;9.43;;
6785;SDS011;3430;51.192;6.048;2023-04-09T02:04:48;13.33;;;9.80;;
6785;SDS011;3430;51.192;6.048;2023-04-09T02:09:53;12.33;;;9.03;;
6785;SDS011;3430;51.192;6.048;2023-04-09T02:12:19;12.03;;;9.97;;
6785;SDS011;3430;51.192;6.048;2023-04-09T02:14:45;14.00;;;10.00;;
6785;SDS011;3430;51.192;6.048;2023-04-09T02:17:12;12.13;;;9.13;;
6785;SDS011;3430;51.192;6.048;2023-04-09T02:19:42;11.83;;;9.43;;
6785;SDS011;3430;51.192;6.048;2023-04-09T02:22:08;12.97;;;9.43;;
6785;SDS011;3430;51.192;6.048;2023-04-09T02:24:34;10.93;;;9.03;;
6785;SDS011;3430;51.192;6.048;2023-04-09T02:27:00;13.63;;;10.27;;
6785;SDS011;3430;51.192;6.048;2023-04-09T02:29:26;14.10;;;10.07;;
6785;SDS011;3430;51.192;6.048;2023-04-09T02:31:52;14.67;;;10.03;;
6785;SDS011;3430;51.192;6.048;2023-04-09T02:34:17;13.57;;;9.27;;
6785;SDS011;3430;51.192;6.048;2023-04-09T02:36:43;13.23;;;8.87;;
6785;SDS011;3430;51.192;6.048;2023-04-09T02:39:08;11.97;;;9.30;;
6785;SDS011;3430;51.192;6.048;2023-04-09T02:41:33;15.67;;;10.23;;
6785;SDS011;3430;51.192;6.048;2023-04-09T02:43:59;12.53;;;9.60;;
6785;SDS011;3430;51.192;6.048;2023-04-09T02:46:24;11.50;;;9.07;;
6785;SDS011;3430;51.192;6.048;2023-04-09T02:48:50;11.83;;;9.03;;
6785;SDS011;3430;51.192;6.048;2023-04-09T02:51:15;14.90;;;10.57;;
6785;SDS011;3430;51.192;6.048;2023-04-09T02:53:41;12.57;;;9.53;;
6785;SDS011;3430;51.192;6.048;2023-04-09T02:56:06;12.03;;;8.60;;
6785;SDS011;3430;51.192;6.048;2023-04-09T02:58:31;13.70;;;9.50;;
6785;SDS011;3430;51.192;6.048;2023-04-09T03:00:57;12.63;;;9.23;;
6785;SDS011;3430;51.192;6.048;2023-04-09T03:03:22;11.83;;;9.50;;
6785;SDS011;3430;51.192;6.048;2023-04-09T03:05:47;13.07;;;9.67;;
6785;SDS011;3430;51.192;6.048;2023-04-09T03:08:13;14.23;;;10.07;;
6785;SDS011;3430;51.192;6.048;2023-04-09T03:10:38;14.17;;;9.67;;
6785;SDS011;3430;51.192;6.048;2023-04-09T03:13:04;14.67;;;10.10;;
6785;SDS011;3430;51.192;6.048;2023-04-09T03:15:29;13.30;;;10.13;;
6785;SDS011;3430;51.192;6.048;2023-04-09T03:17:54;12.70;;;9.57;;
6785;SDS011;3430;51.192;6.048;2023-04-09T03:20:19;15.70;;;11.07;;
6785;SDS011;3430;51.192;6.048;2023-04-09T03:22:45;12.10;;;9.90;;
6785;SDS011;3430;51.192;6.048;2023-04-09T03:25:10;14.53;;;10.77;;
6785;SDS011;3430;51.192;6.048;2023-04-09T03:27:35;13.60;;;9.73;;
6785;SDS011;3430;51.192;6.048;2023-04-09T03:30:00;14.10;;;10.60;;
6785;SDS011;3430;51.192;6.048;2023-04-09T03:32:27;12.93;;;9.33;;
6785;SDS011;3430;51.192;6.048;2023-04-09T03:34:52;11.37;;;9.57;;
6785;SDS011;3430;51.192;6.048;2023-04-09T03:37:17;11.80;;;8.70;;
6785;SDS011;3430;51.192;6.048;2023-04-09T03:39:42;11.80;;;9.73;;
6785;SDS011;3430;51.192;6.048;2023-04-09T03:42:08;12.87;;;9.07;;
6785;SDS011;3430;51.192;6.048;2023-04-09T03:44:33;12.33;;;9.33;;
6785;SDS011;3430;51.192;6.048;2023-04-09T03:46:58;13.70;;;10.30;;
6785;SDS011;3430;51.192;6.048;2023-04-09T03:49:23;12.43;;;8.90;;
6785;SDS011;3430;51.192;6.048;2023-04-09T03:51:49;15.67;;;10.37;;
6785;SDS011;3430;51.192;6.048;2023-04-09T03:54:14;14.50;;;10.67;;
6785;SDS011;3430;51.192;6.048;2023-04-09T03:56:39;15.20;;;10.37;;
6785;SDS011;3430;51.192;6.048;2023-04-09T03:59:04;14.10;;;9.97;;
6785;SDS011;3430;51.192;6.048;2023-04-09T04:01:30;12.90;;;9.50;;
6785;SDS011;3430;51.192;6.048;2023-04-09T04:03:55;14.43;;;10.00;;
6785;SDS011;3430;51.192;6.048;2023-04-09T04:06:21;13.60;;;9.47;;
6785;SDS011;3430;51.192;6.048;2023-04-09T04:08:46;13.40;;;9.70;;
6785;SDS011;3430;51.192;6.048;2023-04-09T04:11:11;11.70;;;9.23;;
6785;SDS011;3430;51.192;6.048;2023-04-09T04:13:36;14.73;;;10.47;;
6785;SDS011;3430;51.192;6.048;2023-04-09T04:16:05;14.57;;;10.30;;
6785;SDS011;3430;51.192;6.048;2023-04-09T04:18:30;13.67;;;9.03;;
6785;SDS011;3430;51.192;6.048;2023-04-09T04:20:56;13.63;;;10.00;;
6785;SDS011;3430;51.192;6.048;2023-04-09T04:23:21;15.00;;;10.07;;
6785;SDS011;3430;51.192;6.048;2023-04-09T04:25:46;12.10;;;8.90;;
6785;SDS011;3430;51.192;6.048;2023-04-09T04:28:11;15.03;;;10.77;;
6785;SDS011;3430;51.192;6.048;2023-04-09T04:30:37;17.10;;;11.37;;
6785;SDS011;3430;51.192;6.048;2023-04-09T04:33:04;14.97;;;10.60;;
6785;SDS011;3430;51.192;6.048;2023-04-09T04:35:30;13.00;;;10.00;;
6785;SDS011;3430;51.192;6.048;2023-04-09T04:37:55;15.20;;;10.60;;
6785;SDS011;3430;51.192;6.048;2023-04-09T04:40:21;15.37;;;10.30;;
6785;SDS011;3430;51.192;6.048;2023-04-09T04:42:46;13.83;;;9.43;;
6785;SDS011;3430;51.192;6.048;2023-04-09T04:45:11;17.60;;;10.73;;
6785;SDS011;3430;51.192;6.048;2023-04-09T04:47:36;13.27;;;9.97;;
6785;SDS011;3430;51.192;6.048;2023-04-09T04:50:02;12.73;;;9.40;;
6785;SDS011;3430;51.192;6.048;2023-04-09T04:52:27;14.80;;;10.40;;
6785;SDS011;3430;51.192;6.048;2023-04-09T04:54:52;15.07;;;10.47;;
6785;SDS011;3430;51.192;6.048;2023-04-09T04:57:17;14.40;;;10.33;;
6785;SDS011;3430;51.192;6.048;2023-04-09T04:59:43;15.20;;;10.10;;
6785;SDS011;3430;51.192;6.048;2023-04-09T05:02:08;13.43;;;10.00;;
6785;SDS011;3430;51.192;6.048;2023-04-09T05:04:34;14.93;;;10.90;;
6785;SDS011;3430;51.192;6.048;2023-04-09T05:06:59;12.87;;;10.07;;
6785;SDS011;3430;51.192;6.048;2023-04-09T05:09:24;14.57;;;10.07;;
6785;SDS011;3430;51.192;6.048;2023-04-09T05:11:49;14.83;;;10.40;;
6785;SDS011;3430;51.192;6.048;2023-04-09T05:14:15;14.57;;;10.43;;
6785;SDS011;3430;51.192;6.048;2023-04-09T05:16:41;12.27;;;9.43;;
6785;SDS011;3430;51.192;6.048;2023-04-09T05:19:07;15.20;;;9.77;;
6785;SDS011;3430;51.192;6.048;2023-04-09T05:21:33;14.87;;;10.13;;
6785;SDS011;3430;51.192;6.048;2023-04-09T05:23:58;14.43;;;10.43;;
6785;SDS011;3430;51.192;6.048;2023-04-09T05:26:23;14.47;;;10.80;;
6785;SDS011;3430;51.192;6.048;2023-04-09T05:28:49;17.87;;;11.20;;
6785;SDS011;3430;51.192;6.048;2023-04-09T05:31:14;15.93;;;11.23;;
6785;SDS011;3430;51.192;6.048;2023-04-09T05:33:40;16.43;;;11.27;;
6785;SDS011;3430;51.192;6.048;2023-04-09T05:36:06;15.47;;;10.37;;
6785;SDS011;3430;51.192;6.048;2023-04-09T05:38:31;14.37;;;10.93;;
6785;SDS011;3430;51.192;6.048;2023-04-09T05:40:56;13.30;;;9.93;;
6785;SDS011;3430;51.192;6.048;2023-04-09T05:43:22;14.83;;;10.80;;
6785;SDS011;3430;51.192;6.048;2023-04-09T05:45:47;14.73;;;10.00;;
6785;SDS011;3430;51.192;6.048;2023-04-09T05:48:12;13.47;;;9.53;;
6785;SDS011;3430;51.192;6.048;2023-04-09T05:50:38;15.37;;;11.70;;
6785;SDS011;3430;51.192;6.048;2023-04-09T05:53:03;12.97;;;9.43;;
6785;SDS011;3430;51.192;6.048;2023-04-09T05:55:29;15.00;;;9.50;;
6785;SDS011;3430;51.192;6.048;2023-04-09T05:57:55;11.57;;;9.77;;
6785;SDS011;3430;51.192;6.048;2023-04-09T06:00:21;13.17;;;9.67;;
6785;SDS011;3430;51.192;6.048;2023-04-09T06:02:46;11.87;;;10.13;;
6785;SDS011;3430;51.192;6.048;2023-04-09T06:05:11;13.30;;;10.50;;
6785;SDS011;3430;51.192;6.048;2023-04-09T06:07:36;15.23;;;10.73;;
6785;SDS011;3430;51.192;6.048;2023-04-09T06:10:02;15.03;;;10.87;;
6785;SDS011;3430;51.192;6.048;2023-04-09T06:12:27;14.17;;;10.13;;
6785;SDS011;3430;51.192;6.048;2023-04-09T06:14:52;14.90;;;10.53;;
6785;SDS011;3430;51.192;6.048;2023-04-09T06:17:18;15.67;;;10.27;;
6785;SDS011;3430;51.192;6.048;2023-04-09T06:19:43;13.27;;;10.60;;
6785;SDS011;3430;51.192;6.048;2023-04-09T06:22:08;14.93;;;10.90;;
6785;SDS011;3430;51.192;6.048;2023-04-09T06:24:34;15.93;;;10.80;;
6785;SDS011;3430;51.192;6.048;2023-04-09T06:27:00;14.83;;;10.33;;
6785;SDS011;3430;51.192;6.048;2023-04-09T06:29:25;13.30;;;10.40;;
6785;SDS011;3430;51.192;6.048;2023-04-09T06:31:51;14.33;;;10.33;;
6785;SDS011;3430;51.192;6.048;2023-04-09T06:34:19;14.93;;;11.23;;
6785;SDS011;3430;51.192;6.048;2023-04-09T06:36:45;13.93;;;10.83;;
6785;SDS011;3430;51.192;6.048;2023-04-09T06:39:10;14.10;;;10.47;;
6785;SDS011;3430;51.192;6.048;2023-04-09T06:41:35;14.80;;;10.23;;
6785;SDS011;3430;51.192;6.048;2023-04-09T06:44:01;14.23;;;10.47;;
6785;SDS011;3430;51.192;6.048;2023-04-09T06:46:26;16.50;;;12.37;;
6785;SDS011;3430;51.192;6.048;2023-04-09T06:48:52;16.77;;;10.37;;
6785;SDS011;3430;51.192;6.048;2023-04-09T06:51:17;16.30;;;11.73;;
6785;SDS011;3430;51.192;6.048;2023-04-09T06:53:42;15.37;;;11.43;;
6785;SDS011;3430;51.192;6.048;2023-04-09T06:56:07;17.17;;;11.23;;
6785;SDS011;3430;51.192;6.048;2023-04-09T06:58:33;15.63;;;11.67;;
6785;SDS011;3430;51.192;6.048;2023-04-09T07:00:58;15.77;;;10.53;;
6785;SDS011;3430;51.192;6.048;2023-04-09T07:03:24;14.23;;;10.43;;
6785;SDS011;3430;51.192;6.048;2023-04-09T07:05:52;14.23;;;10.07;;
6785;SDS011;3430;51.192;6.048;2023-04-09T07:08:17;14.90;;;10.67;;
6785;SDS011;3430;51.192;6.048;2023-04-09T07:10:43;18.07;;;11.50;;
6785;SDS011;3430;51.192;6.048;2023-04-09T07:13:08;15.67;;;10.70;;
6785;SDS011;3430;51.192;6.048;2023-04-09T07:15:33;15.60;;;9.80;;
6785;SDS011;3430;51.192;6.048;2023-04-09T07:17:58;13.80;;;9.93;;
6785;SDS011;3430;51.192;6.048;2023-04-09T07:20:24;13.47;;;10.53;;
6785;SDS011;3430;51.192;6.048;2023-04-09T07:22:49;14.17;;;9.90;;
6785;SDS011;3430;51.192;6.048;2023-04-09T07:25:15;13.57;;;9.57;;
6785;SDS011;3430;51.192;6.048;2023-04-09T07:27:40;11.37;;;9.23;;
6785;SDS011;3430;51.192;6.048;2023-04-09T07:30:07;12.50;;;9.03;;
6785;SDS011;3430;51.192;6.048;2023-04-09T07:32:33;10.70;;;9.07;;
6785;SDS011;3430;51.192;6.048;2023-04-09T07:34:58;13.10;;;9.97;;
6785;SDS011;3430;51.192;6.048;2023-04-09T07:37:23;15.17;;;10.27;;
6785;SDS011;3430;51.192;6.048;2023-04-09T07:39:49;11.40;;;9.27;;
6785;SDS011;3430;51.192;6.048;2023-04-09T07:42:15;12.63;;;9.07;;
6785;SDS011;3430;51.192;6.048;2023-04-09T07:44:40;12.30;;;9.57;;
6785;SDS011;3430;51.192;6.048;2023-04-09T07:47:06;14.20;;;9.93;;
6785;SDS011;3430;51.192;6.048;2023-04-09T07:49:32;13.63;;;8.90;;
6785;SDS011;3430;51.192;6.048;2023-04-09T07:52:00;10.67;;;8.10;;
6785;SDS011;3430;51.192;6.048;2023-04-09T07:54:25;12.53;;;8.83;;
6785;SDS011;3430;51.192;6.048;2023-04-09T07:56:51;11.60;;;8.73;;
6785;SDS011;3430;51.192;6.048;2023-04-09T07:59:16;11.97;;;9.40;;
6785;SDS011;3430;51.192;6.048;2023-04-09T08:01:41;12.50;;;9.20;;
6785;SDS011;3430;51.192;6.048;2023-04-09T08:04:07;15.33;;;8.73;;
6785;SDS011;3430;51.192;6.048;2023-04-09T08:06:32;13.13;;;8.80;;
6785;SDS011;3430;51.192;6.048;2023-04-09T08:08:58;12.30;;;8.87;;
6785;SDS011;3430;51.192;6.048;2023-04-09T08:11:23;11.63;;;8.80;;
6785;SDS011;3430;51.192;6.048;2023-04-09T08:13:52;10.20;;;8.13;;
6785;SDS011;3430;51.192;6.048;2023-04-09T08:16:18;11.37;;;8.23;;
6785;SDS011;3430;51.192;6.048;2023-04-09T08:18:43;11.77;;;8.47;;
6785;SDS011;3430;51.192;6.048;2023-04-09T08:21:08;10.60;;;8.20;;
6785;SDS011;3430;51.192;6.048;2023-04-09T08:23:34;11.37;;;8.00;;
6785;SDS011;3430;51.192;6.048;2023-04-09T08:26:00;14.17;;;9.33;;
6785;SDS011;3430;51.192;6.048;2023-04-09T08:28:25;11.00;;;8.10;;
6785;SDS011;3430;51.192;6.048;2023-04-09T08:30:50;11.47;;;8.57;;
6785;SDS011;3430;51.192;6.048;2023-04-09T08:33:16;10.73;;;8.43;;
6785;SDS011;3430;51.192;6.048;2023-04-09T08:35:41;10.77;;;8.13;;
6785;SDS011;3430;51.192;6.048;2023-04-09T08:38:07;10.70;;;8.20;;
6785;SDS011;3430;51.192;6.048;2023-04-09T08:40:35;10.37;;;8.27;;
6785;SDS011;3430;51.192;6.048;2023-04-09T08:43:03;11.80;;;8.17;;
6785;SDS011;3430;51.192;6.048;2023-04-09T08:45:28;10.87;;;8.20;;
6785;SDS011;3430;51.192;6.048;2023-04-09T08:47:53;13.23;;;8.40;;
6785;SDS011;3430;51.192;6.048;2023-04-09T08:50:19;11.67;;;7.93;;
6785;SDS011;3430;51.192;6.048;2023-04-09T08:52:45;10.90;;;8.50;;
6785;SDS011;3430;51.192;6.048;2023-04-09T08:55:11;9.80;;;7.97;;
6785;SDS011;3430;51.192;6.048;2023-04-09T08:57:39;12.07;;;8.47;;
6785;SDS011;3430;51.192;6.048;2023-04-09T09:00:05;11.17;;;8.23;;
6785;SDS011;3430;51.192;6.048;2023-04-09T09:02:31;10.47;;;7.57;;
6785;SDS011;3430;51.192;6.048;2023-04-09T09:04:56;11.27;;;7.67;;
6785;SDS011;3430;51.192;6.048;2023-04-09T09:07:24;10.80;;;8.03;;
6785;SDS011;3430;51.192;6.048;2023-04-09T09:12:32;10.37;;;7.43;;
6785;SDS011;3430;51.192;6.048;2023-04-09T09:14:57;11.97;;;8.43;;
6785;SDS011;3430;51.192;6.048;2023-04-09T09:17:23;10.47;;;8.60;;
6785;SDS011;3430;51.192;6.048;2023-04-09T09:19:48;9.73;;;7.70;;
6785;SDS011;3430;51.192;6.048;2023-04-09T09:22:13;9.43;;;7.80;;
6785;SDS011;3430;51.192;6.048;2023-04-09T09:24:48;10.77;;;7.60;;
6785;SDS011;3430;51.192;6.048;2023-04-09T09:27:30;11.03;;;7.80;;
6785;SDS011;3430;51.192;6.048;2023-04-09T09:29:56;10.40;;;7.93;;
6785;SDS011;3430;51.192;6.048;2023-04-09T09:32:22;9.80;;;7.80;;
6785;SDS011;3430;51.192;6.048;2023-04-09T09:34:56;8.67;;;6.97;;
6785;SDS011;3430;51.192;6.048;2023-04-09T09:37:25;8.07;;;7.27;;
6785;SDS011;3430;51.192;6.048;2023-04-09T09:39:51;10.27;;;7.73;;
6785;SDS011;3430;51.192;6.048;2023-04-09T09:42:16;8.33;;;6.67;;
6785;SDS011;3430;51.192;6.048;2023-04-09T09:44:41;10.53;;;7.30;;
6785;SDS011;3430;51.192;6.048;2023-04-09T09:47:07;9.60;;;7.93;;
6785;SDS011;3430;51.192;6.048;2023-04-09T09:49:33;11.53;;;7.33;;
6785;SDS011;3430;51.192;6.048;2023-04-09T09:51:59;10.00;;;7.73;;
6785;SDS011;3430;51.192;6.048;2023-04-09T09:54:26;8.10;;;7.17;;
6785;SDS011;3430;51.192;6.048;2023-04-09T09:56:53;9.80;;;7.10;;
6785;SDS011;3430;51.192;6.048;2023-04-09T09:59:20;8.40;;;6.80;;
6785;SDS011;3430;51.192;6.048;2023-04-09T10:01:55;8.93;;;6.87;;
6785;SDS011;3430;51.192;6.048;2023-04-09T10:04:22;9.97;;;7.87;;
6785;SDS011;3430;51.192;6.048;2023-04-09T10:06:47;9.37;;;6.40;;
6785;SDS011;3430;51.192;6.048;2023-04-09T10:09:13;8.77;;;6.90;;
6785;SDS011;3430;51.192;6.048;2023-04-09T10:11:38;9.30;;;7.37;;
6785;SDS011;3430;51.192;6.048;2023-04-09T10:14:08;8.90;;;6.30;;
6785;SDS011;3430;51.192;6.048;2023-04-09T10:16:33;9.07;;;7.10;;
6785;SDS011;3430;51.192;6.048;2023-04-09T10:18:59;10.40;;;6.80;;
6785;SDS011;3430;51.192;6.048;2023-04-09T10:22:08;11.53;;;7.30;;
6785;SDS011;3430;51.192;6.048;2023-04-09T10:24:14;9.27;;;7.20;;
6785;SDS011;3430;51.192;6.048;2023-04-09T10:26:40;8.17;;;6.57;;
6785;SDS011;3430;51.192;6.048;2023-04-09T10:29:12;11.90;;;7.63;;
6785;SDS011;3430;51.192;6.048;2023-04-09T10:34:09;8.97;;;6.73;;
6785;SDS011;3430;51.192;6.048;2023-04-09T10:36:35;8.10;;;7.20;;
6785;SDS011;3430;51.192;6.048;2023-04-09T10:39:00;7.90;;;6.37;;
6785;SDS011;3430;51.192;6.048;2023-04-09T10:41:35;7.43;;;6.63;;
6785;SDS011;3430;51.192;6.048;2023-04-09T10:44:04;7.83;;;6.90;;
6785;SDS011;3430;51.192;6.048;2023-04-09T10:46:33;6.83;;;5.70;;
6785;SDS011;3430;51.192;6.048;2023-04-09T10:49:07;8.87;;;6.67;;
6785;SDS011;3430;51.192;6.048;2023-04-09T10:51:36;8.73;;;6.70;;
6785;SDS011;3430;51.192;6.048;2023-04-09T10:54:03;8.57;;;6.33;;
6785;SDS011;3430;51.192;6.048;2023-04-09T10:56:29;9.73;;;6.83;;
6785;SDS011;3430;51.192;6.048;2023-04-09T10:58:54;8.70;;;6.80;;
6785;SDS011;3430;51.192;6.048;2023-04-09T11:01:20;10.03;;;7.13;;
6785;SDS011;3430;51.192;6.048;2023-04-09T11:03:46;8.07;;;6.30;;
6785;SDS011;3430;51.192;6.048;2023-04-09T11:06:28;7.50;;;6.37;;
6785;SDS011;3430;51.192;6.048;2023-04-09T11:08:55;8.43;;;6.60;;
6785;SDS011;3430;51.192;6.048;2023-04-09T11:11:25;8.47;;;6.50;;
6785;SDS011;3430;51.192;6.048;2023-04-09T11:13:50;9.33;;;6.23;;
6785;SDS011;3430;51.192;6.048;2023-04-09T11:16:16;8.20;;;6.93;;
6785;SDS011;3430;51.192;6.048;2023-04-09T11:18:42;8.27;;;6.27;;
6785;SDS011;3430;51.192;6.048;2023-04-09T11:21:07;8.20;;;6.80;;
6785;SDS011;3430;51.192;6.048;2023-04-09T11:23:34;7.13;;;6.03;;
6785;SDS011;3430;51.192;6.048;2023-04-09T11:25:59;7.53;;;6.53;;
6785;SDS011;3430;51.192;6.048;2023-04-09T11:28:25;7.27;;;6.33;;
6785;SDS011;3430;51.192;6.048;2023-04-09T11:30:51;8.03;;;5.93;;
6785;SDS011;3430;51.192;6.048;2023-04-09T11:33:16;7.43;;;6.30;;
6785;SDS011;3430;51.192;6.048;2023-04-09T11:35:42;8.00;;;5.87;;
6785;SDS011;3430;51.192;6.048;2023-04-09T11:38:08;7.53;;;5.93;;
6785;SDS011;3430;51.192;6.048;2023-04-09T11:40:33;9.23;;;6.57;;
6785;SDS011;3430;51.192;6.048;2023-04-09T11:42:58;7.23;;;6.17;;
6785;SDS011;3430;51.192;6.048;2023-04-09T11:45:25;7.70;;;5.97;;
6785;SDS011;3430;51.192;6.048;2023-04-09T11:47:51;7.43;;;6.30;;
6785;SDS011;3430;51.192;6.048;2023-04-09T11:50:17;9.57;;;6.30;;
6785;SDS011;3430;51.192;6.048;2023-04-09T11:52:43;6.13;;;5.53;;
6785;SDS011;3430;51.192;6.048;2023-04-09T11:55:09;6.37;;;5.77;;
6785;SDS011;3430;51.192;6.048;2023-04-09T11:57:44;7.20;;;5.87;;
6785;SDS011;3430;51.192;6.048;2023-04-09T12:00:10;7.67;;;5.93;;
6785;SDS011;3430;51.192;6.048;2023-04-09T12:02:46;8.17;;;6.33;;
6785;SDS011;3430;51.192;6.048;2023-04-09T12:05:19;8.77;;;5.97;;
6785;SDS011;3430;51.192;6.048;2023-04-09T12:07:44;7.90;;;5.47;;
6785;SDS011;3430;51.192;6.048;2023-04-09T12:10:10;7.03;;;5.47;;
6785;SDS011;3430;51.192;6.048;2023-04-09T12:12:39;6.20;;;5.33;;
6785;SDS011;3430;51.192;6.048;2023-04-09T12:17:36;8.83;;;5.40;;
6785;SDS011;3430;51.192;6.048;2023-04-09T12:20:02;6.00;;;5.40;;
6785;SDS011;3430;51.192;6.048;2023-04-09T12:22:27;6.73;;;5.50;;
6785;SDS011;3430;51.192;6.048;2023-04-09T12:24:55;6.77;;;5.73;;
6785;SDS011;3430;51.192;6.048;2023-04-09T12:27:20;6.00;;;5.00;;
6785;SDS011;3430;51.192;6.048;2023-04-09T12:29:46;9.40;;;6.20;;
6785;SDS011;3430;51.192;6.048;2023-04-09T12:32:11;7.20;;;6.20;;
6785;SDS011;3430;51.192;6.048;2023-04-09T12:34:36;7.37;;;5.57;;
6785;SDS011;3430;51.192;6.048;2023-04-09T12:37:02;5.93;;;5.03;;
6785;SDS011;3430;51.192;6.048;2023-04-09T12:39:27;6.70;;;5.20;;
6785;SDS011;3430;51.192;6.048;2023-04-09T12:41:52;7.03;;;6.13;;
6785;SDS011;3430;51.192;6.048;2023-04-09T12:44:18;6.70;;;5.40;;
6785;SDS011;3430;51.192;6.048;2023-04-09T12:46:43;7.33;;;5.37;;
6785;SDS011;3430;51.192;6.048;2023-04-09T12:49:09;7.30;;;5.03;;
6785;SDS011;3430;51.192;6.048;2023-04-09T12:51:34;7.30;;;5.97;;
6785;SDS011;3430;51.192;6.048;2023-04-09T12:53:59;6.83;;;5.43;;
6785;SDS011;3430;51.192;6.048;2023-04-09T12:56:24;6.60;;;5.63;;
6785;SDS011;3430;51.192;6.048;2023-04-09T12:58:50;8.17;;;5.97;;
6785;SDS011;3430;51.192;6.048;2023-04-09T13:01:21;7.67;;;5.70;;
6785;SDS011;3430;51.192;6.048;2023-04-09T13:03:46;8.63;;;5.90;;
6785;SDS011;3430;51.192;6.048;2023-04-09T13:06:12;6.80;;;5.43;;
6785;SDS011;3430;51.192;6.048;2023-04-09T13:08:37;7.83;;;5.37;;
6785;SDS011;3430;51.192;6.048;2023-04-09T13:11:02;6.57;;;4.97;;
6785;SDS011;3430;51.192;6.048;2023-04-09T13:13:28;6.67;;;5.27;;
6785;SDS011;3430;51.192;6.048;2023-04-09T13:15:53;6.57;;;5.20;;
6785;SDS011;3430;51.192;6.048;2023-04-09T13:18:18;6.93;;;5.43;;
6785;SDS011;3430;51.192;6.048;2023-04-09T13:20:44;5.37;;;4.67;;
6785;SDS011;3430;51.192;6.048;2023-04-09T13:23:09;6.13;;;5.33;;
6785;SDS011;3430;51.192;6.048;2023-04-09T13:25:34;5.63;;;4.73;;
6785;SDS011;3430;51.192;6.048;2023-04-09T13:28:00;6.43;;;5.10;;
6785;SDS011;3430;51.192;6.048;2023-04-09T13:30:25;6.40;;;5.10;;
6785;SDS011;3430;51.192;6.048;2023-04-09T13:32:50;6.63;;;4.90;;
6785;SDS011;3430;51.192;6.048;2023-04-09T13:35:16;6.70;;;5.47;;
6785;SDS011;3430;51.192;6.048;2023-04-09T13:37:43;6.83;;;5.27;;
6785;SDS011;3430;51.192;6.048;2023-04-09T13:40:08;4.83;;;4.37;;
6785;SDS011;3430;51.192;6.048;2023-04-09T13:42:33;6.70;;;5.40;;
6785;SDS011;3430;51.192;6.048;2023-04-09T13:44:59;6.30;;;5.07;;
6785;SDS011;3430;51.192;6.048;2023-04-09T13:47:27;6.00;;;5.07;;
6785;SDS011;3430;51.192;6.048;2023-04-09T13:49:52;5.23;;;4.73;;
6785;SDS011;3430;51.192;6.048;2023-04-09T13:52:17;6.40;;;4.87;;
6785;SDS011;3430;51.192;6.048;2023-04-09T13:54:43;5.67;;;4.90;;
6785;SDS011;3430;51.192;6.048;2023-04-09T13:57:08;5.47;;;4.80;;
6785;SDS011;3430;51.192;6.048;2023-04-09T13:59:34;5.03;;;4.53;;
6785;SDS011;3430;51.192;6.048;2023-04-09T14:02:00;5.37;;;4.87;;
6785;SDS011;3430;51.192;6.048;2023-04-09T14:04:25;6.63;;;5.23;;
6785;SDS011;3430;51.192;6.048;2023-04-09T14:06:50;6.07;;;5.10;;
6785;SDS011;3430;51.192;6.048;2023-04-09T14:09:16;5.63;;;4.90;;
6785;SDS011;3430;51.192;6.048;2023-04-09T14:11:41;5.10;;;4.60;;
6785;SDS011;3430;51.192;6.048;2023-04-09T14:14:06;6.07;;;5.07;;
6785;SDS011;3430;51.192;6.048;2023-04-09T14:16:31;6.13;;;5.50;;
6785;SDS011;3430;51.192;6.048;2023-04-09T14:18:57;5.63;;;4.90;;
6785;SDS011;3430;51.192;6.048;2023-04-09T14:21:22;5.30;;;4.80;;
6785;SDS011;3430;51.192;6.048;2023-04-09T14:23:48;5.57;;;4.77;;
6785;SDS011;3430;51.192;6.048;2023-04-09T14:26:13;5.17;;;4.67;;
6785;SDS011;3430;51.192;6.048;2023-04-09T14:28:40;5.20;;;4.70;;
6785;SDS011;3430;51.192;6.048;2023-04-09T14:31:05;4.93;;;4.43;;
6785;SDS011;3430;51.192;6.048;2023-04-09T14:33:30;5.33;;;4.67;;
6785;SDS011;3430;51.192;6.048;2023-04-09T14:35:58;5.10;;;4.60;;
6785;SDS011;3430;51.192;6.048;2023-04-09T14:38:23;6.57;;;4.80;;
6785;SDS011;3430;51.192;6.048;2023-04-09T14:40:49;5.60;;;4.70;;
6785;SDS011;3430;51.192;6.048;2023-04-09T14:43:14;5.97;;;5.10;;
6785;SDS011;3430;51.192;6.048;2023-04-09T14:45:39;5.33;;;4.33;;
6785;SDS011;3430;51.192;6.048;2023-04-09T14:48:05;4.90;;;4.40;;
6785;SDS011;3430;51.192;6.048;2023-04-09T14:50:30;5.63;;;4.40;;
6785;SDS011;3430;51.192;6.048;2023-04-09T14:52:56;5.70;;;5.10;;
6785;SDS011;3430;51.192;6.048;2023-04-09T14:55:21;5.30;;;4.70;;
6785;SDS011;3430;51.192;6.048;2023-04-09T14:57:46;5.37;;;4.83;;
6785;SDS011;3430;51.192;6.048;2023-04-09T15:00:12;4.40;;;4.00;;
6785;SDS011;3430;51.192;6.048;2023-04-09T15:02:37;5.70;;;5.20;;
6785;SDS011;3430;51.192;6.048;2023-04-09T15:05:03;5.10;;;4.57;;
6785;SDS011;3430;51.192;6.048;2023-04-09T15:07:28;4.80;;;4.30;;
6785;SDS011;3430;51.192;6.048;2023-04-09T15:09:55;4.93;;;4.23;;
6785;SDS011;3430;51.192;6.048;2023-04-09T15:12:20;4.97;;;4.40;;
6785;SDS011;3430;51.192;6.048;2023-04-09T15:14:46;6.13;;;4.30;;
6785;SDS011;3430;51.192;6.048;2023-04-09T15:17:11;4.13;;;3.73;;
6785;SDS011;3430;51.192;6.048;2023-04-09T15:19:36;5.03;;;4.23;;
6785;SDS011;3430;51.192;6.048;2023-04-09T15:22:02;5.83;;;4.33;;